Farber, Missouri
Current Conditions -  °F | °C
As of 4:55 AM on Thursday 27 Nov 2014 (Local Time) from KHAE Reporting Station
Overcast Overcast  
Wind Chill: 21°   Ceiling: 2300
Heat Index: 30°   Visibility: 10mi
Dew Point: 25°   Wind: 12mph
Humidity: 80%   Direction: 320°NW
Pressure: 30.42"   Gusts: NA
Location:  39.27°N, 91.57°W
Report Text: KHAE 271055Z AUTO 32010KT 10SM SCT016 OVC023 M01/M04 A3042 RMK AO2
Loading
Personal Weather Stations






























Interactive Weather Map New forecast layout! Learn more

10-Day Weather Forecast

Advertisements
Track Severe Weather on mobile